sensor_id;sensor_type;location;lat;lon;timestamp;P1;durP1;ratioP1;P2;durP2;ratioP2
8490;SDS011;4282;49.986;7.938;2023-06-10T00:00:01;8.35;;;7.30;;
8490;SDS011;4282;49.986;7.938;2023-06-10T00:02:30;7.40;;;6.80;;
8490;SDS011;4282;49.986;7.938;2023-06-10T00:04:59;7.93;;;7.13;;
8490;SDS011;4282;49.986;7.938;2023-06-10T00:07:27;8.98;;;6.80;;
8490;SDS011;4282;49.986;7.938;2023-06-10T00:09:55;8.10;;;7.05;;
8490;SDS011;4282;49.986;7.938;2023-06-10T00:12:27;7.15;;;6.38;;
8490;SDS011;4282;49.986;7.938;2023-06-10T00:14:56;7.53;;;6.82;;
8490;SDS011;4282;49.986;7.938;2023-06-10T00:17:24;7.90;;;7.20;;
8490;SDS011;4282;49.986;7.938;2023-06-10T00:19:54;6.82;;;6.22;;
8490;SDS011;4282;49.986;7.938;2023-06-10T00:22:22;7.00;;;6.40;;
8490;SDS011;4282;49.986;7.938;2023-06-10T00:24:54;6.75;;;6.10;;
8490;SDS011;4282;49.986;7.938;2023-06-10T00:27:22;7.28;;;6.57;;
8490;SDS011;4282;49.986;7.938;2023-06-10T00:29:58;7.90;;;7.10;;
8490;SDS011;4282;49.986;7.938;2023-06-10T00:32:27;7.80;;;6.45;;
8490;SDS011;4282;49.986;7.938;2023-06-10T00:34:55;7.32;;;6.30;;
8490;SDS011;4282;49.986;7.938;2023-06-10T00:37:23;7.95;;;6.60;;
8490;SDS011;4282;49.986;7.938;2023-06-10T00:39:52;11.68;;;6.60;;
8490;SDS011;4282;49.986;7.938;2023-06-10T00:42:20;13.13;;;6.63;;
8490;SDS011;4282;49.986;7.938;2023-06-10T00:44:49;7.70;;;6.65;;
8490;SDS011;4282;49.986;7.938;2023-06-10T00:47:21;8.25;;;6.28;;
8490;SDS011;4282;49.986;7.938;2023-06-10T00:49:49;7.20;;;6.50;;
8490;SDS011;4282;49.986;7.938;2023-06-10T00:52:18;9.35;;;6.90;;
8490;SDS011;4282;49.986;7.938;2023-06-10T00:54:47;7.50;;;6.15;;
8490;SDS011;4282;49.986;7.938;2023-06-10T00:57:15;8.45;;;7.07;;
8490;SDS011;4282;49.986;7.938;2023-06-10T00:59:45;6.88;;;6.13;;
8490;SDS011;4282;49.986;7.938;2023-06-10T01:02:16;6.50;;;5.90;;
8490;SDS011;4282;49.986;7.938;2023-06-10T01:04:47;8.95;;;6.80;;
8490;SDS011;4282;49.986;7.938;2023-06-10T01:07:18;7.60;;;6.72;;
8490;SDS011;4282;49.986;7.938;2023-06-10T01:09:54;7.43;;;6.53;;
8490;SDS011;4282;49.986;7.938;2023-06-10T01:12:26;7.72;;;6.88;;
8490;SDS011;4282;49.986;7.938;2023-06-10T01:14:59;7.70;;;7.00;;
8490;SDS011;4282;49.986;7.938;2023-06-10T01:17:29;7.55;;;6.68;;
8490;SDS011;4282;49.986;7.938;2023-06-10T01:19:59;9.00;;;6.88;;
8490;SDS011;4282;49.986;7.938;2023-06-10T01:22:39;6.82;;;6.20;;
8490;SDS011;4282;49.986;7.938;2023-06-10T01:25:07;6.80;;;6.10;;
8490;SDS011;4282;49.986;7.938;2023-06-10T01:27:37;8.90;;;6.60;;
8490;SDS011;4282;49.986;7.938;2023-06-10T01:30:08;10.35;;;7.50;;
8490;SDS011;4282;49.986;7.938;2023-06-10T01:32:42;7.90;;;7.18;;
8490;SDS011;4282;49.986;7.938;2023-06-10T01:35:12;11.13;;;7.13;;
8490;SDS011;4282;49.986;7.938;2023-06-10T01:37:45;8.07;;;7.28;;
8490;SDS011;4282;49.986;7.938;2023-06-10T01:40:14;8.25;;;6.78;;
8490;SDS011;4282;49.986;7.938;2023-06-10T01:42:42;8.30;;;7.30;;
8490;SDS011;4282;49.986;7.938;2023-06-10T01:45:11;8.82;;;7.45;;
8490;SDS011;4282;49.986;7.938;2023-06-10T01:47:39;7.50;;;6.90;;
8490;SDS011;4282;49.986;7.938;2023-06-10T01:50:07;8.15;;;7.10;;
8490;SDS011;4282;49.986;7.938;2023-06-10T01:52:36;7.70;;;7.00;;
8490;SDS011;4282;49.986;7.938;2023-06-10T01:55:07;8.15;;;7.35;;
8490;SDS011;4282;49.986;7.938;2023-06-10T01:57:36;7.90;;;7.10;;
8490;SDS011;4282;49.986;7.938;2023-06-10T02:00:05;10.43;;;8.45;;
8490;SDS011;4282;49.986;7.938;2023-06-10T02:02:35;8.70;;;7.85;;
8490;SDS011;4282;49.986;7.938;2023-06-10T02:05:03;8.82;;;7.88;;
8490;SDS011;4282;49.986;7.938;2023-06-10T02:07:32;8.75;;;7.90;;
8490;SDS011;4282;49.986;7.938;2023-06-10T02:10:00;8.88;;;8.07;;
8490;SDS011;4282;49.986;7.938;2023-06-10T02:12:31;8.25;;;7.45;;
8490;SDS011;4282;49.986;7.938;2023-06-10T02:14:59;8.35;;;7.55;;
8490;SDS011;4282;49.986;7.938;2023-06-10T02:17:28;8.18;;;7.50;;
8490;SDS011;4282;49.986;7.938;2023-06-10T02:19:57;8.88;;;7.97;;
8490;SDS011;4282;49.986;7.938;2023-06-10T02:22:29;10.43;;;8.07;;
8490;SDS011;4282;49.986;7.938;2023-06-10T02:24:57;9.10;;;8.20;;
8490;SDS011;4282;49.986;7.938;2023-06-10T02:27:25;9.00;;;7.85;;
8490;SDS011;4282;49.986;7.938;2023-06-10T02:29:56;9.35;;;8.20;;
8490;SDS011;4282;49.986;7.938;2023-06-10T02:32:24;9.27;;;8.18;;
8490;SDS011;4282;49.986;7.938;2023-06-10T02:34:53;9.15;;;8.23;;
8490;SDS011;4282;49.986;7.938;2023-06-10T02:37:21;9.32;;;7.97;;
8490;SDS011;4282;49.986;7.938;2023-06-10T02:39:49;10.77;;;8.18;;
8490;SDS011;4282;49.986;7.938;2023-06-10T02:42:18;8.73;;;7.85;;
8490;SDS011;4282;49.986;7.938;2023-06-10T02:44:46;8.93;;;8.13;;
8490;SDS011;4282;49.986;7.938;2023-06-10T02:47:17;9.55;;;7.93;;
8490;SDS011;4282;49.986;7.938;2023-06-10T02:49:45;7.72;;;7.03;;
8490;SDS011;4282;49.986;7.938;2023-06-10T02:52:13;8.20;;;7.35;;
8490;SDS011;4282;49.986;7.938;2023-06-10T02:54:42;8.10;;;7.13;;
8490;SDS011;4282;49.986;7.938;2023-06-10T02:57:10;7.68;;;6.97;;
8490;SDS011;4282;49.986;7.938;2023-06-10T02:59:39;8.38;;;7.45;;
8490;SDS011;4282;49.986;7.938;2023-06-10T03:02:08;9.23;;;6.95;;
8490;SDS011;4282;49.986;7.938;2023-06-10T03:04:40;8.77;;;7.22;;
8490;SDS011;4282;49.986;7.938;2023-06-10T03:07:10;7.97;;;7.18;;
8490;SDS011;4282;49.986;7.938;2023-06-10T03:09:39;10.02;;;7.53;;
8490;SDS011;4282;49.986;7.938;2023-06-10T03:12:08;7.55;;;6.72;;
8490;SDS011;4282;49.986;7.938;2023-06-10T03:14:37;8.68;;;6.70;;
8490;SDS011;4282;49.986;7.938;2023-06-10T03:17:05;7.00;;;6.18;;
8490;SDS011;4282;49.986;7.938;2023-06-10T03:19:33;18.20;;;7.28;;
8490;SDS011;4282;49.986;7.938;2023-06-10T03:22:12;6.97;;;6.28;;
8490;SDS011;4282;49.986;7.938;2023-06-10T03:24:41;6.72;;;6.13;;
8490;SDS011;4282;49.986;7.938;2023-06-10T03:27:11;6.65;;;6.05;;
8490;SDS011;4282;49.986;7.938;2023-06-10T03:29:40;8.32;;;6.82;;
8490;SDS011;4282;49.986;7.938;2023-06-10T03:32:08;7.07;;;6.22;;
8490;SDS011;4282;49.986;7.938;2023-06-10T03:34:36;6.68;;;6.07;;
8490;SDS011;4282;49.986;7.938;2023-06-10T03:37:05;7.93;;;6.90;;
8490;SDS011;4282;49.986;7.938;2023-06-10T03:39:35;7.35;;;6.40;;
8490;SDS011;4282;49.986;7.938;2023-06-10T03:42:04;6.63;;;6.03;;
8490;SDS011;4282;49.986;7.938;2023-06-10T03:44:33;6.53;;;5.93;;
8490;SDS011;4282;49.986;7.938;2023-06-10T03:47:03;8.77;;;6.03;;
8490;SDS011;4282;49.986;7.938;2023-06-10T03:49:31;6.32;;;5.72;;
8490;SDS011;4282;49.986;7.938;2023-06-10T03:52:01;6.88;;;6.18;;
8490;SDS011;4282;49.986;7.938;2023-06-10T03:54:30;7.00;;;5.82;;
8490;SDS011;4282;49.986;7.938;2023-06-10T03:57:02;6.55;;;5.85;;
8490;SDS011;4282;49.986;7.938;2023-06-10T03:59:30;8.80;;;5.65;;
8490;SDS011;4282;49.986;7.938;2023-06-10T04:01:59;10.65;;;5.93;;
8490;SDS011;4282;49.986;7.938;2023-06-10T04:04:27;8.60;;;5.78;;
8490;SDS011;4282;49.986;7.938;2023-06-10T04:06:55;7.78;;;5.95;;
8490;SDS011;4282;49.986;7.938;2023-06-10T04:09:24;8.23;;;5.95;;
8490;SDS011;4282;49.986;7.938;2023-06-10T04:11:52;6.32;;;5.32;;
8490;SDS011;4282;49.986;7.938;2023-06-10T04:14:23;6.55;;;5.88;;
8490;SDS011;4282;49.986;7.938;2023-06-10T04:16:51;6.43;;;5.68;;
8490;SDS011;4282;49.986;7.938;2023-06-10T04:19:19;6.93;;;5.78;;
8490;SDS011;4282;49.986;7.938;2023-06-10T04:21:47;6.47;;;5.45;;
8490;SDS011;4282;49.986;7.938;2023-06-10T04:24:15;5.60;;;5.10;;
8490;SDS011;4282;49.986;7.938;2023-06-10T04:26:44;7.15;;;5.78;;
8490;SDS011;4282;49.986;7.938;2023-06-10T04:29:12;6.15;;;5.55;;
8490;SDS011;4282;49.986;7.938;2023-06-10T04:31:43;7.50;;;5.60;;
8490;SDS011;4282;49.986;7.938;2023-06-10T04:34:11;7.03;;;5.40;;
8490;SDS011;4282;49.986;7.938;2023-06-10T04:36:40;6.40;;;5.72;;
8490;SDS011;4282;49.986;7.938;2023-06-10T04:39:08;6.35;;;5.57;;
8490;SDS011;4282;49.986;7.938;2023-06-10T04:41:36;6.28;;;5.68;;
8490;SDS011;4282;49.986;7.938;2023-06-10T04:44:05;7.82;;;6.18;;
8490;SDS011;4282;49.986;7.938;2023-06-10T04:46:33;7.00;;;6.30;;
8490;SDS011;4282;49.986;7.938;2023-06-10T04:49:04;9.55;;;6.72;;
8490;SDS011;4282;49.986;7.938;2023-06-10T04:51:32;7.93;;;7.13;;
8490;SDS011;4282;49.986;7.938;2023-06-10T04:54:01;7.25;;;6.53;;
8490;SDS011;4282;49.986;7.938;2023-06-10T04:56:30;8.23;;;7.22;;
8490;SDS011;4282;49.986;7.938;2023-06-10T04:58:59;8.57;;;7.40;;
8490;SDS011;4282;49.986;7.938;2023-06-10T05:01:27;8.57;;;6.60;;
8490;SDS011;4282;49.986;7.938;2023-06-10T05:03:55;8.27;;;7.38;;
8490;SDS011;4282;49.986;7.938;2023-06-10T05:06:26;8.60;;;6.80;;
8490;SDS011;4282;49.986;7.938;2023-06-10T05:08:54;8.13;;;7.32;;
8490;SDS011;4282;49.986;7.938;2023-06-10T05:11:22;9.88;;;7.15;;
8490;SDS011;4282;49.986;7.938;2023-06-10T05:13:51;7.63;;;6.70;;
8490;SDS011;4282;49.986;7.938;2023-06-10T05:16:19;8.15;;;7.05;;
8490;SDS011;4282;49.986;7.938;2023-06-10T05:18:47;7.97;;;7.22;;
8490;SDS011;4282;49.986;7.938;2023-06-10T05:21:16;7.10;;;6.50;;
8490;SDS011;4282;49.986;7.938;2023-06-10T05:23:46;7.55;;;6.85;;
8490;SDS011;4282;49.986;7.938;2023-06-10T05:26:15;10.13;;;7.40;;
8490;SDS011;4282;49.986;7.938;2023-06-10T05:28:43;7.93;;;7.13;;
8490;SDS011;4282;49.986;7.938;2023-06-10T05:31:11;8.43;;;7.57;;
8490;SDS011;4282;49.986;7.938;2023-06-10T05:33:40;7.65;;;6.75;;
8490;SDS011;4282;49.986;7.938;2023-06-10T05:36:08;8.00;;;7.20;;
8490;SDS011;4282;49.986;7.938;2023-06-10T05:38:37;7.70;;;7.10;;
8490;SDS011;4282;49.986;7.938;2023-06-10T05:41:07;8.25;;;7.22;;
8490;SDS011;4282;49.986;7.938;2023-06-10T05:43:36;7.20;;;6.50;;
8490;SDS011;4282;49.986;7.938;2023-06-10T05:46:05;7.15;;;6.55;;
8490;SDS011;4282;49.986;7.938;2023-06-10T05:48:33;7.70;;;7.00;;
8490;SDS011;4282;49.986;7.938;2023-06-10T05:51:01;7.63;;;6.88;;
8490;SDS011;4282;49.986;7.938;2023-06-10T05:53:30;8.23;;;7.30;;
8490;SDS011;4282;49.986;7.938;2023-06-10T05:55:58;7.38;;;6.60;;
8490;SDS011;4282;49.986;7.938;2023-06-10T05:58:29;7.85;;;7.10;;
8490;SDS011;4282;49.986;7.938;2023-06-10T06:00:57;8.75;;;7.07;;
8490;SDS011;4282;49.986;7.938;2023-06-10T06:03:25;7.97;;;6.93;;
8490;SDS011;4282;49.986;7.938;2023-06-10T06:05:53;8.48;;;7.05;;
8490;SDS011;4282;49.986;7.938;2023-06-10T06:08:22;7.38;;;6.68;;
8490;SDS011;4282;49.986;7.938;2023-06-10T06:10:50;9.23;;;6.68;;
8490;SDS011;4282;49.986;7.938;2023-06-10T06:13:18;7.45;;;6.65;;
8490;SDS011;4282;49.986;7.938;2023-06-10T06:15:49;7.07;;;6.45;;
8490;SDS011;4282;49.986;7.938;2023-06-10T06:18:17;9.02;;;6.88;;
8490;SDS011;4282;49.986;7.938;2023-06-10T06:20:46;7.20;;;6.32;;
8490;SDS011;4282;49.986;7.938;2023-06-10T06:23:14;8.02;;;7.13;;
8490;SDS011;4282;49.986;7.938;2023-06-10T06:25:42;6.93;;;6.32;;
8490;SDS011;4282;49.986;7.938;2023-06-10T06:28:10;11.23;;;6.72;;
8490;SDS011;4282;49.986;7.938;2023-06-10T06:30:38;7.05;;;6.40;;
8490;SDS011;4282;49.986;7.938;2023-06-10T06:33:09;9.55;;;6.72;;
8490;SDS011;4282;49.986;7.938;2023-06-10T06:35:38;10.07;;;6.88;;
8490;SDS011;4282;49.986;7.938;2023-06-10T06:38:06;7.03;;;6.32;;
8490;SDS011;4282;49.986;7.938;2023-06-10T06:40:34;6.97;;;6.00;;
8490;SDS011;4282;49.986;7.938;2023-06-10T06:43:02;7.95;;;7.18;;
8490;SDS011;4282;49.986;7.938;2023-06-10T06:45:31;9.75;;;6.53;;
8490;SDS011;4282;49.986;7.938;2023-06-10T06:47:59;6.68;;;6.07;;
8490;SDS011;4282;49.986;7.938;2023-06-10T06:50:30;6.90;;;6.20;;
8490;SDS011;4282;49.986;7.938;2023-06-10T06:52:58;8.60;;;6.20;;
8490;SDS011;4282;49.986;7.938;2023-06-10T06:55:26;8.77;;;6.70;;
8490;SDS011;4282;49.986;7.938;2023-06-10T06:57:54;9.38;;;6.57;;
8490;SDS011;4282;49.986;7.938;2023-06-10T07:00:23;13.65;;;6.78;;
8490;SDS011;4282;49.986;7.938;2023-06-10T07:02:51;6.68;;;5.95;;
8490;SDS011;4282;49.986;7.938;2023-06-10T07:05:20;8.20;;;6.45;;
8490;SDS011;4282;49.986;7.938;2023-06-10T07:07:51;9.90;;;7.15;;
8490;SDS011;4282;49.986;7.938;2023-06-10T07:10:21;7.30;;;6.63;;
8490;SDS011;4282;49.986;7.938;2023-06-10T07:12:49;8.10;;;6.75;;
8490;SDS011;4282;49.986;7.938;2023-06-10T07:15:17;6.78;;;6.03;;
8490;SDS011;4282;49.986;7.938;2023-06-10T07:17:46;8.80;;;6.35;;
8490;SDS011;4282;49.986;7.938;2023-06-10T07:20:14;7.22;;;6.53;;
8490;SDS011;4282;49.986;7.938;2023-06-10T07:22:43;7.25;;;6.28;;
8490;SDS011;4282;49.986;7.938;2023-06-10T07:25:14;7.75;;;6.18;;
8490;SDS011;4282;49.986;7.938;2023-06-10T07:27:42;7.75;;;6.20;;
8490;SDS011;4282;49.986;7.938;2023-06-10T07:30:11;7.07;;;6.05;;
8490;SDS011;4282;49.986;7.938;2023-06-10T07:32:40;7.85;;;7.05;;
8490;SDS011;4282;49.986;7.938;2023-06-10T07:35:09;6.72;;;6.03;;
8490;SDS011;4282;49.986;7.938;2023-06-10T07:37:38;6.70;;;5.90;;
8490;SDS011;4282;49.986;7.938;2023-06-10T07:40:06;6.38;;;5.70;;
8490;SDS011;4282;49.986;7.938;2023-06-10T07:42:38;7.00;;;6.15;;
8490;SDS011;4282;49.986;7.938;2023-06-10T07:45:07;6.88;;;6.22;;
8490;SDS011;4282;49.986;7.938;2023-06-10T07:47:35;5.88;;;5.28;;
8490;SDS011;4282;49.986;7.938;2023-06-10T07:50:04;7.95;;;6.05;;
8490;SDS011;4282;49.986;7.938;2023-06-10T07:52:33;7.57;;;6.68;;
8490;SDS011;4282;49.986;7.938;2023-06-10T07:55:01;8.25;;;5.45;;
8490;SDS011;4282;49.986;7.938;2023-06-10T07:57:30;6.25;;;5.63;;
8490;SDS011;4282;49.986;7.938;2023-06-10T08:00:04;7.03;;;5.75;;
8490;SDS011;4282;49.986;7.938;2023-06-10T08:02:36;7.45;;;6.05;;
8490;SDS011;4282;49.986;7.938;2023-06-10T08:05:05;6.07;;;5.47;;
8490;SDS011;4282;49.986;7.938;2023-06-10T08:07:34;7.80;;;5.88;;
8490;SDS011;4282;49.986;7.938;2023-06-10T08:10:02;7.35;;;6.03;;
8490;SDS011;4282;49.986;7.938;2023-06-10T08:12:31;7.20;;;6.50;;
8490;SDS011;4282;49.986;7.938;2023-06-10T08:15:00;6.80;;;5.97;;
8490;SDS011;4282;49.986;7.938;2023-06-10T08:17:31;7.55;;;6.32;;
8490;SDS011;4282;49.986;7.938;2023-06-10T08:20:00;7.13;;;6.13;;
8490;SDS011;4282;49.986;7.938;2023-06-10T08:22:28;6.97;;;6.20;;
8490;SDS011;4282;49.986;7.938;2023-06-10T08:24:57;7.50;;;6.35;;
8490;SDS011;4282;49.986;7.938;2023-06-10T08:27:25;7.95;;;6.47;;
8490;SDS011;4282;49.986;7.938;2023-06-10T08:29:53;8.27;;;6.55;;
8490;SDS011;4282;49.986;7.938;2023-06-10T08:32:21;6.63;;;5.63;;
8490;SDS011;4282;49.986;7.938;2023-06-10T08:34:52;8.07;;;6.18;;
8490;SDS011;4282;49.986;7.938;2023-06-10T08:37:20;6.82;;;5.75;;
8490;SDS011;4282;49.986;7.938;2023-06-10T08:39:49;6.28;;;5.78;;
8490;SDS011;4282;49.986;7.938;2023-06-10T08:42:21;8.05;;;6.18;;
8490;SDS011;4282;49.986;7.938;2023-06-10T08:44:53;7.10;;;6.40;;
8490;SDS011;4282;49.986;7.938;2023-06-10T08:47:23;8.75;;;5.75;;
8490;SDS011;4282;49.986;7.938;2023-06-10T08:49:56;7.72;;;6.13;;
8490;SDS011;4282;49.986;7.938;2023-06-10T08:52:28;6.90;;;6.30;;
8490;SDS011;4282;49.986;7.938;2023-06-10T08:54:58;7.07;;;6.47;;
8490;SDS011;4282;49.986;7.938;2023-06-10T08:57:28;8.15;;;6.07;;
8490;SDS011;4282;49.986;7.938;2023-06-10T08:59:57;9.20;;;6.47;;
8490;SDS011;4282;49.986;7.938;2023-06-10T09:02:26;7.93;;;6.70;;
8490;SDS011;4282;49.986;7.938;2023-06-10T09:04:58;8.70;;;6.28;;
8490;SDS011;4282;49.986;7.938;2023-06-10T09:07:26;7.50;;;6.68;;
8490;SDS011;4282;49.986;7.938;2023-06-10T09:09:56;7.82;;;6.07;;
8490;SDS011;4282;49.986;7.938;2023-06-10T09:12:25;7.10;;;6.40;;
8490;SDS011;4282;49.986;7.938;2023-06-10T09:14:53;6.60;;;5.88;;
8490;SDS011;4282;49.986;7.938;2023-06-10T09:17:22;7.60;;;5.65;;
8490;SDS011;4282;49.986;7.938;2023-06-10T09:19:50;8.30;;;5.88;;
8490;SDS011;4282;49.986;7.938;2023-06-10T09:22:24;6.88;;;6.22;;
8490;SDS011;4282;49.986;7.938;2023-06-10T09:25:01;7.50;;;5.70;;
8490;SDS011;4282;49.986;7.938;2023-06-10T09:27:30;6.45;;;5.47;;
8490;SDS011;4282;49.986;7.938;2023-06-10T09:29:59;5.82;;;5.22;;
8490;SDS011;4282;49.986;7.938;2023-06-10T09:32:28;6.88;;;6.18;;
8490;SDS011;4282;49.986;7.938;2023-06-10T09:34:56;6.63;;;6.03;;
8490;SDS011;4282;49.986;7.938;2023-06-10T09:37:28;6.50;;;5.85;;
8490;SDS011;4282;49.986;7.938;2023-06-10T09:40:02;7.05;;;5.90;;
8490;SDS011;4282;49.986;7.938;2023-06-10T09:42:34;6.80;;;6.20;;
8490;SDS011;4282;49.986;7.938;2023-06-10T09:45:05;7.43;;;5.90;;
8490;SDS011;4282;49.986;7.938;2023-06-10T09:47:34;5.53;;;5.03;;
8490;SDS011;4282;49.986;7.938;2023-06-10T09:50:03;6.72;;;6.00;;
8490;SDS011;4282;49.986;7.938;2023-06-10T09:52:34;6.63;;;5.28;;
8490;SDS011;4282;49.986;7.938;2023-06-10T09:55:07;6.75;;;6.15;;
8490;SDS011;4282;49.986;7.938;2023-06-10T09:57:36;5.80;;;5.15;;
8490;SDS011;4282;49.986;7.938;2023-06-10T10:00:07;5.90;;;5.30;;
8490;SDS011;4282;49.986;7.938;2023-06-10T10:02:43;5.93;;;5.30;;
8490;SDS011;4282;49.986;7.938;2023-06-10T10:05:13;6.07;;;5.47;;
8490;SDS011;4282;49.986;7.938;2023-06-10T10:07:44;5.85;;;5.30;;
8490;SDS011;4282;49.986;7.938;2023-06-10T10:10:13;5.97;;;5.40;;
8490;SDS011;4282;49.986;7.938;2023-06-10T10:12:42;6.80;;;5.10;;
8490;SDS011;4282;49.986;7.938;2023-06-10T10:15:11;5.95;;;5.38;;
8490;SDS011;4282;49.986;7.938;2023-06-10T10:17:40;6.60;;;6.00;;
8490;SDS011;4282;49.986;7.938;2023-06-10T10:20:12;7.13;;;6.30;;
8490;SDS011;4282;49.986;7.938;2023-06-10T10:22:45;8.85;;;5.68;;
8490;SDS011;4282;49.986;7.938;2023-06-10T10:25:15;6.60;;;5.97;;
8490;SDS011;4282;49.986;7.938;2023-06-10T10:27:47;6.47;;;5.80;;
8490;SDS011;4282;49.986;7.938;2023-06-10T10:30:17;6.43;;;5.50;;
8490;SDS011;4282;49.986;7.938;2023-06-10T10:32:57;6.43;;;5.82;;
8490;SDS011;4282;49.986;7.938;2023-06-10T10:35:29;6.85;;;6.18;;
8490;SDS011;4282;49.986;7.938;2023-06-10T10:38:00;8.57;;;6.10;;
8490;SDS011;4282;49.986;7.938;2023-06-10T10:40:30;6.32;;;5.72;;
8490;SDS011;4282;49.986;7.938;2023-06-10T10:42:58;6.63;;;5.60;;
8490;SDS011;4282;49.986;7.938;2023-06-10T10:45:27;7.25;;;5.57;;
8490;SDS011;4282;49.986;7.938;2023-06-10T10:47:56;7.00;;;5.55;;
8490;SDS011;4282;49.986;7.938;2023-06-10T10:50:25;6.93;;;5.72;;
8490;SDS011;4282;49.986;7.938;2023-06-10T10:53:01;8.50;;;5.65;;
8490;SDS011;4282;49.986;7.938;2023-06-10T10:55:30;5.13;;;4.68;;
8490;SDS011;4282;49.986;7.938;2023-06-10T10:57:59;9.40;;;5.45;;
8490;SDS011;4282;49.986;7.938;2023-06-10T11:00:31;7.28;;;5.45;;
8490;SDS011;4282;49.986;7.938;2023-06-10T11:03:04;5.32;;;4.93;;
8490;SDS011;4282;49.986;7.938;2023-06-10T11:05:37;6.18;;;5.00;;
8490;SDS011;4282;49.986;7.938;2023-06-10T11:08:11;5.47;;;5.00;;
8490;SDS011;4282;49.986;7.938;2023-06-10T11:10:40;5.72;;;5.18;;
8490;SDS011;4282;49.986;7.938;2023-06-10T11:13:10;8.20;;;5.72;;
8490;SDS011;4282;49.986;7.938;2023-06-10T11:15:43;4.30;;;3.90;;
8490;SDS011;4282;49.986;7.938;2023-06-10T11:18:19;4.85;;;4.15;;
8490;SDS011;4282;49.986;7.938;2023-06-10T11:20:56;4.65;;;4.35;;
8490;SDS011;4282;49.986;7.938;2023-06-10T11:23:29;5.32;;;4.78;;
8490;SDS011;4282;49.986;7.938;2023-06-10T11:26:10;6.63;;;5.00;;
8490;SDS011;4282;49.986;7.938;2023-06-10T11:28:42;5.22;;;4.60;;
8490;SDS011;4282;49.986;7.938;2023-06-10T11:31:29;6.28;;;5.28;;
8490;SDS011;4282;49.986;7.938;2023-06-10T11:33:58;5.68;;;5.18;;
8490;SDS011;4282;49.986;7.938;2023-06-10T11:36:28;7.05;;;4.70;;
8490;SDS011;4282;49.986;7.938;2023-06-10T11:39:00;6.03;;;5.13;;
8490;SDS011;4282;49.986;7.938;2023-06-10T11:41:29;6.03;;;5.40;;
8490;SDS011;4282;49.986;7.938;2023-06-10T11:44:00;5.72;;;5.22;;
8490;SDS011;4282;49.986;7.938;2023-06-10T11:46:30;5.68;;;5.18;;
8490;SDS011;4282;49.986;7.938;2023-06-10T11:48:59;4.22;;;3.92;;
8490;SDS011;4282;49.986;7.938;2023-06-10T11:51:28;7.70;;;5.70;;
8490;SDS011;4282;49.986;7.938;2023-06-10T11:54:00;7.50;;;5.53;;
8490;SDS011;4282;49.986;7.938;2023-06-10T11:56:30;6.78;;;5.38;;
8490;SDS011;4282;49.986;7.938;2023-06-10T11:59:00;6.75;;;6.03;;
8490;SDS011;4282;49.986;7.938;2023-06-10T12:01:31;6.15;;;5.47;;
8490;SDS011;4282;49.986;7.938;2023-06-10T12:04:02;6.28;;;5.47;;
8490;SDS011;4282;49.986;7.938;2023-06-10T12:06:38;7.38;;;6.20;;
8490;SDS011;4282;49.986;7.938;2023-06-10T12:09:12;5.80;;;5.30;;
8490;SDS011;4282;49.986;7.938;2023-06-10T12:11:45;5.75;;;5.25;;
8490;SDS011;4282;49.986;7.938;2023-06-10T12:14:13;6.07;;;5.57;;
8490;SDS011;4282;49.986;7.938;2023-06-10T12:16:47;6.70;;;6.05;;
8490;SDS011;4282;49.986;7.938;2023-06-10T12:19:16;6.03;;;5.43;;
8490;SDS011;4282;49.986;7.938;2023-06-10T12:21:44;5.80;;;4.95;;
8490;SDS011;4282;49.986;7.938;2023-06-10T12:24:15;5.82;;;5.32;;
8490;SDS011;4282;49.986;7.938;2023-06-10T12:26:44;7.45;;;5.95;;
8490;SDS011;4282;49.986;7.938;2023-06-10T12:29:19;6.60;;;5.70;;
8490;SDS011;4282;49.986;7.938;2023-06-10T12:31:53;6.25;;;5.65;;
8490;SDS011;4282;49.986;7.938;2023-06-10T12:34:29;5.72;;;5.10;;
8490;SDS011;4282;49.986;7.938;2023-06-10T12:36:58;7.28;;;5.70;;
8490;SDS011;4282;49.986;7.938;2023-06-10T12:39:29;5.93;;;5.28;;
8490;SDS011;4282;49.986;7.938;2023-06-10T12:41:57;6.20;;;5.57;;
8490;SDS011;4282;49.986;7.938;2023-06-10T12:44:32;5.97;;;5.40;;
8490;SDS011;4282;49.986;7.938;2023-06-10T12:47:07;6.60;;;6.00;;
8490;SDS011;4282;49.986;7.938;2023-06-10T12:49:37;6.30;;;5.57;;
8490;SDS011;4282;49.986;7.938;2023-06-10T12:52:06;9.48;;;5.82;;
8490;SDS011;4282;49.986;7.938;2023-06-10T12:54:37;5.70;;;4.40;;
8490;SDS011;4282;49.986;7.938;2023-06-10T12:57:05;7.47;;;5.45;;
8490;SDS011;4282;49.986;7.938;2023-06-10T12:59:35;6.28;;;5.60;;
8490;SDS011;4282;49.986;7.938;2023-06-10T13:02:04;5.75;;;5.15;;
8490;SDS011;4282;49.986;7.938;2023-06-10T13:04:33;6.80;;;5.18;;
8490;SDS011;4282;49.986;7.938;2023-06-10T13:07:01;5.70;;;5.10;;
8490;SDS011;4282;49.986;7.938;2023-06-10T13:09:29;6.28;;;5.60;;
8490;SDS011;4282;49.986;7.938;2023-06-10T13:12:00;5.57;;;5.07;;
8490;SDS011;4282;49.986;7.938;2023-06-10T13:14:28;5.25;;;4.85;;
8490;SDS011;4282;49.986;7.938;2023-06-10T13:16:57;5.20;;;4.80;;
8490;SDS011;4282;49.986;7.938;2023-06-10T13:19:25;5.40;;;4.90;;
8490;SDS011;4282;49.986;7.938;2023-06-10T13:21:53;5.72;;;5.22;;
8490;SDS011;4282;49.986;7.938;2023-06-10T13:24:21;5.28;;;4.88;;
8490;SDS011;4282;49.986;7.938;2023-06-10T13:26:50;5.47;;;4.97;;
8490;SDS011;4282;49.986;7.938;2023-06-10T13:29:22;6.65;;;4.95;;
8490;SDS011;4282;49.986;7.938;2023-06-10T13:31:50;5.30;;;4.80;;
8490;SDS011;4282;49.986;7.938;2023-06-10T13:34:18;5.82;;;4.85;;
8490;SDS011;4282;49.986;7.938;2023-06-10T13:36:47;5.32;;;4.90;;
8490;SDS011;4282;49.986;7.938;2023-06-10T13:39:15;5.40;;;4.90;;
8490;SDS011;4282;49.986;7.938;2023-06-10T13:41:43;4.70;;;4.30;;
8490;SDS011;4282;49.986;7.938;2023-06-10T13:44:11;5.75;;;4.95;;
8490;SDS011;4282;49.986;7.938;2023-06-10T13:46:42;5.38;;;4.78;;
8490;SDS011;4282;49.986;7.938;2023-06-10T13:49:11;5.30;;;4.63;;
8490;SDS011;4282;49.986;7.938;2023-06-10T13:51:39;6.05;;;4.90;;
8490;SDS011;4282;49.986;7.938;2023-06-10T13:54:07;5.45;;;4.90;;
8490;SDS011;4282;49.986;7.938;2023-06-10T13:56:37;5.47;;;4.53;;
8490;SDS011;4282;49.986;7.938;2023-06-10T13:59:05;5.40;;;4.70;;
8490;SDS011;4282;49.986;7.938;2023-06-10T14:01:33;5.30;;;4.45;;
8490;SDS011;4282;49.986;7.938;2023-06-10T14:04:05;6.03;;;5.00;;
8490;SDS011;4282;49.986;7.938;2023-06-10T14:06:33;4.85;;;4.50;;
8490;SDS011;4282;49.986;7.938;2023-06-10T14:09:02;5.20;;;4.80;;
8490;SDS011;4282;49.986;7.938;2023-06-10T14:11:30;5.55;;;5.03;;
8490;SDS011;4282;49.986;7.938;2023-06-10T14:13:59;5.70;;;4.72;;
8490;SDS011;4282;49.986;7.938;2023-06-10T14:16:27;5.13;;;4.63;;
8490;SDS011;4282;49.986;7.938;2023-06-10T14:18:55;4.80;;;4.40;;
8490;SDS011;4282;49.986;7.938;2023-06-10T14:21:26;6.00;;;4.78;;
8490;SDS011;4282;49.986;7.938;2023-06-10T14:23:54;5.10;;;4.70;;
8490;SDS011;4282;49.986;7.938;2023-06-10T14:26:23;4.43;;;4.00;;
8490;SDS011;4282;49.986;7.938;2023-06-10T14:28:51;4.82;;;4.32;;
8490;SDS011;4282;49.986;7.938;2023-06-10T14:31:19;4.80;;;4.40;;
8490;SDS011;4282;49.986;7.938;2023-06-10T14:33:47;6.63;;;4.68;;
8490;SDS011;4282;49.986;7.938;2023-06-10T14:36:16;5.22;;;4.78;;
8490;SDS011;4282;49.986;7.938;2023-06-10T14:38:47;5.13;;;4.72;;
8490;SDS011;4282;49.986;7.938;2023-06-10T14:41:15;6.30;;;4.70;;
8490;SDS011;4282;49.986;7.938;2023-06-10T14:43:43;5.32;;;4.78;;
8490;SDS011;4282;49.986;7.938;2023-06-10T14:46:11;5.78;;;5.18;;
8490;SDS011;4282;49.986;7.938;2023-06-10T14:48:40;7.28;;;6.15;;
8490;SDS011;4282;49.986;7.938;2023-06-10T14:51:08;5.60;;;4.68;;
8490;SDS011;4282;49.986;7.938;2023-06-10T14:53:36;5.57;;;5.00;;
8490;SDS011;4282;49.986;7.938;2023-06-10T14:56:07;5.45;;;4.82;;
8490;SDS011;4282;49.986;7.938;2023-06-10T14:58:35;5.00;;;4.57;;
8490;SDS011;4282;49.986;7.938;2023-06-10T15:01:03;5.82;;;5.10;;
8490;SDS011;4282;49.986;7.938;2023-06-10T15:03:32;5.97;;;4.50;;
8490;SDS011;4282;49.986;7.938;2023-06-10T15:06:00;5.25;;;4.85;;
8490;SDS011;4282;49.986;7.938;2023-06-10T15:08:28;6.75;;;5.55;;
8490;SDS011;4282;49.986;7.938;2023-06-10T15:10:56;6.25;;;4.78;;
8490;SDS011;4282;49.986;7.938;2023-06-10T15:13:28;6.15;;;4.85;;
8490;SDS011;4282;49.986;7.938;2023-06-10T15:15:57;5.32;;;4.90;;
8490;SDS011;4282;49.986;7.938;2023-06-10T15:18:25;5.45;;;4.95;;
8490;SDS011;4282;49.986;7.938;2023-06-10T15:20:56;5.82;;;5.32;;
8490;SDS011;4282;49.986;7.938;2023-06-10T15:23:24;5.18;;;4.68;;
8490;SDS011;4282;49.986;7.938;2023-06-10T15:25:53;5.50;;;4.88;;
8490;SDS011;4282;49.986;7.938;2023-06-10T15:28:21;5.05;;;4.65;;